Time;durP1;ratioP1;P1;durP2;ratioP2;P2;SDS_P1;SDS_P2;PMS_P1;PMS_P2;Temp;Humidity;BMP_temperature;BMP_pressure;BME280_temperature;BME280_humidity;BME280_pressure;Samples;Min_cycle;Max_cycle;Signal;HPM_P1;HPM_P2
2021/10/25 00:00:09;;;;;;;58.72;26.33;;;128.90;2252.80;;;;;;5076723;28;20102;-60
2021/10/25 00:02:36;;;;;;;59.08;26.50;;;128.80;2252.80;;;;;;5058660;28;20024;-60
2021/10/25 00:05:02;;;;;;;45.90;23.60;;;128.90;2252.80;;;;;;5076989;28;20029;-62
2021/10/25 00:07:28;;;;;;;43.92;22.00;;;153.60;2252.80;;;;;;5076392;28;20129;-61
2021/10/25 00:09:54;;;;;;;40.88;21.17;;;128.90;2252.80;;;;;;5076492;28;20094;-61
2021/10/25 00:12:20;;;;;;;43.97;21.27;;;128.80;2252.80;;;;;;5076689;28;20477;-61
2021/10/25 00:14:46;;;;;;;45.03;22.08;;;128.90;2252.80;;;;;;5076673;28;20020;-61
2021/10/25 00:17:12;;;;;;;49.00;25.27;;;128.90;2252.80;;;;;;5076325;28;20027;-61
2021/10/25 00:19:38;;;;;;;56.88;27.05;;;128.80;2252.80;;;;;;5058485;28;20028;-59
2021/10/25 00:22:04;;;;;;;59.28;27.23;;;128.80;2252.80;;;;;;5076401;28;20029;-59
2021/10/25 00:24:30;;;;;;;49.28;24.88;;;128.80;2252.80;;;;;;5075977;28;20028;-62
2021/10/25 00:26:56;;;;;;;51.17;25.25;;;128.70;2252.80;;;;;;5076449;28;20058;-59
2021/10/25 00:29:22;;;;;;;42.65;23.08;;;128.70;2252.80;;;;;;5075738;28;20025;-59
2021/10/25 00:31:48;;;;;;;45.05;22.70;;;128.70;2252.80;;;;;;5076097;28;20028;-59
2021/10/25 00:34:14;;;;;;;43.92;22.85;;;128.60;2252.80;;;;;;5076204;28;20123;-59
2021/10/25 00:36:40;;;;;;;45.53;23.60;;;128.60;2252.80;;;;;;5076042;28;20434;-61
2021/10/25 00:39:07;;;;;;;46.30;22.60;;;128.50;2252.80;;;;;;5057850;28;20114;-60
2021/10/25 00:41:36;;;;;;;45.13;22.40;;;128.50;2252.80;;;;;;5058084;28;20033;-59
2021/10/25 00:44:02;;;;;;;42.60;21.30;;;128.50;2252.80;;;;;;5076086;28;20032;-59
2021/10/25 00:46:29;;;;;;;44.85;21.95;;;128.50;2252.80;;;;;;5075784;28;20024;-59
2021/10/25 00:49:00;;;;;;;47.03;21.80;;;128.40;2252.80;;;;;;5076081;28;20078;-60
2021/10/25 00:51:27;;;;;;;45.85;22.52;;;128.50;2252.80;;;;;;5058230;28;20020;-61
2021/10/25 00:53:53;;;;;;;45.53;22.33;;;128.40;2252.80;;;;;;5075835;28;20031;-60
2021/10/25 00:56:19;;;;;;;43.05;21.50;;;128.60;2252.80;;;;;;5075797;28;20458;-60
2021/10/25 00:58:44;;;;;;;38.03;20.17;;;128.40;2252.80;;;;;;5075858;28;20025;-60
2021/10/25 01:01:10;;;;;;;36.53;18.77;;;128.40;2252.80;;;;;;5075622;28;20020;-60
2021/10/25 01:03:37;;;;;;;37.78;19.05;;;128.40;2252.80;;;;;;5075499;28;20029;-60
2021/10/25 01:06:07;;;;;;;40.20;20.00;;;128.30;2252.80;;;;;;5075940;28;20406;-60
2021/10/25 01:08:36;;;;;;;36.15;18.50;;;128.30;2252.80;;;;;;5075465;28;20385;-60
2021/10/25 01:11:02;;;;;;;35.20;18.30;;;128.30;2252.80;;;;;;5075378;28;20024;-61
2021/10/25 01:13:29;;;;;;;41.83;22.35;;;128.30;2252.80;;;;;;5075788;28;20024;-60
2021/10/25 01:15:55;;;;;;;41.17;22.02;;;128.30;2252.80;;;;;;5075381;28;20467;-60
2021/10/25 01:18:21;;;;;;;36.20;19.38;;;128.40;2252.80;;;;;;5075517;28;20054;-60
2021/10/25 01:20:47;;;;;;;38.40;19.52;;;128.40;2252.80;;;;;;5057525;28;20032;-62
2021/10/25 01:23:15;;;;;;;45.25;22.27;;;128.30;2252.80;;;;;;5075184;28;20381;-60
2021/10/25 01:25:44;;;;;;;42.67;20.35;;;128.30;2252.80;;;;;;5057076;28;20473;-60
2021/10/25 01:28:12;;;;;;;38.45;18.92;;;128.30;2252.80;;;;;;5057521;28;20031;-60
2021/10/25 01:30:37;;;;;;;40.97;20.65;;;128.30;2252.80;;;;;;5057241;28;20420;-60
2021/10/25 01:33:08;;;;;;;41.42;19.80;;;128.20;2252.80;;;;;;5074995;28;20070;-60
2021/10/25 01:35:34;;;;;;;38.78;19.02;;;128.20;2252.80;;;;;;5075081;28;20086;-60
2021/10/25 01:38:00;;;;;;;39.20;19.55;;;128.20;2252.80;;;;;;5074275;28;20020;-60
2021/10/25 01:40:27;;;;;;;35.63;17.75;;;128.20;2252.80;;;;;;5074591;28;20481;-60
2021/10/25 01:42:52;;;;;;;33.08;17.17;;;128.10;2252.80;;;;;;5074788;28;20047;-60
2021/10/25 01:45:19;;;;;;;33.97;17.25;;;128.10;2252.80;;;;;;5074707;28;20473;-60
2021/10/25 01:47:45;;;;;;;58.33;18.42;;;128.00;2252.80;;;;;;5075002;28;20028;-61
2021/10/25 01:50:10;;;;;;;30.45;15.80;;;103.30;2227.20;;;;;;5074975;28;20029;-61
2021/10/25 01:52:36;;;;;;;31.38;16.95;;;103.30;2227.20;;;;;;5074085;28;20024;-61
2021/10/25 01:55:03;;;;;;;33.25;18.70;;;103.30;2227.20;;;;;;5056108;28;20478;-60
2021/10/25 01:57:29;;;;;;;31.45;18.15;;;103.20;2227.20;;;;;;5073082;28;20025;-60
2021/10/25 01:59:55;;;;;;;36.22;19.95;;;103.20;2227.20;;;;;;5057858;28;20031;-60
2021/10/25 02:02:21;;;;;;;32.10;17.30;;;103.20;2227.20;;;;;;5061887;28;20048;-60
2021/10/25 02:04:47;;;;;;;29.42;15.93;;;103.20;2227.20;;;;;;5063326;28;20020;-61
2021/10/25 02:07:13;;;;;;;32.67;18.05;;;103.10;2227.20;;;;;;5063357;28;20094;-60
2021/10/25 02:09:39;;;;;;;30.10;17.02;;;103.10;2227.20;;;;;;5061718;28;20070;-60
2021/10/25 02:12:05;;;;;;;31.13;16.30;;;103.10;2227.20;;;;;;5063657;28;20016;-60
2021/10/25 02:14:31;;;;;;;29.60;15.43;;;103.10;2227.20;;;;;;5062602;28;20025;-60
2021/10/25 02:16:56;;;;;;;27.05;15.07;;;103.10;2227.20;;;;;;5062236;28;20028;-60
2021/10/25 02:19:22;;;;;;;30.40;15.52;;;103.00;2227.20;;;;;;5045451;28;20025;-60
2021/10/25 02:21:48;;;;;;;28.13;16.13;;;103.00;2227.20;;;;;;5062324;28;20024;-61
2021/10/25 02:24:14;;;;;;;29.65;16.15;;;103.00;2227.20;;;;;;5061929;28;20047;-60
2021/10/25 02:26:39;;;;;;;32.92;15.93;;;103.00;2227.20;;;;;;5062821;28;20025;-61
2021/10/25 02:29:05;;;;;;;30.17;16.08;;;103.00;2227.20;;;;;;5061953;28;20391;-61
2021/10/25 02:31:31;;;;;;;31.52;16.25;;;102.90;2227.20;;;;;;5062585;28;20043;-60
2021/10/25 02:33:57;;;;;;;29.52;16.27;;;102.90;2227.20;;;;;;5063216;28;20448;-60
2021/10/25 02:36:22;;;;;;;30.05;15.40;;;102.90;2227.20;;;;;;5061687;28;20025;-61
2021/10/25 02:38:49;;;;;;;30.52;16.08;;;102.80;2227.20;;;;;;5062648;28;20025;-61
2021/10/25 02:41:15;;;;;;;33.13;16.40;;;102.80;2227.20;;;;;;5062984;28;20032;-60
2021/10/25 02:43:41;;;;;;;32.60;16.40;;;102.80;2227.20;;;;;;5061366;28;20424;-61
2021/10/25 02:46:07;;;;;;;28.50;16.05;;;102.80;2227.20;;;;;;5062880;28;20024;-61
2021/10/25 02:48:33;;;;;;;32.45;17.00;;;102.90;2227.20;;;;;;5061879;28;20027;-60
2021/10/25 02:50:58;;;;;;;31.05;16.25;;;102.90;2227.20;;;;;;5061203;28;20043;-60
2021/10/25 02:53:24;;;;;;;32.78;16.45;;;102.90;2227.20;;;;;;5063086;28;20365;-60
2021/10/25 02:55:51;;;;;;;30.65;16.17;;;102.90;2227.20;;;;;;5061962;28;20025;-60
2021/10/25 02:58:17;;;;;;;32.63;16.67;;;102.80;2227.20;;;;;;5061185;28;20036;-61
2021/10/25 03:00:43;;;;;;;30.38;16.13;;;102.80;2227.20;;;;;;5063209;28;20466;-61
2021/10/25 03:03:09;;;;;;;32.10;15.88;;;102.80;2227.20;;;;;;5061960;28;20031;-60
2021/10/25 03:05:36;;;;;;;31.70;16.20;;;102.80;2227.20;;;;;;5061424;28;20033;-60
2021/10/25 03:08:02;;;;;;;32.00;16.15;;;102.70;2227.20;;;;;;5045114;28;20017;-60
2021/10/25 03:10:28;;;;;;;32.45;16.08;;;102.70;2227.20;;;;;;5061914;28;20028;-60
2021/10/25 03:12:54;;;;;;;30.13;16.35;;;102.60;2227.20;;;;;;5061855;28;20013;-61
2021/10/25 03:15:20;;;;;;;30.13;16.55;;;102.60;2227.20;;;;;;5062956;28;20025;-60
2021/10/25 03:17:46;;;;;;;33.45;16.90;;;102.60;2227.20;;;;;;5061673;28;20091;-60
2021/10/25 03:20:12;;;;;;;31.30;16.63;;;102.60;2227.20;;;;;;5061952;28;20025;-60
2021/10/25 03:22:40;;;;;;;36.03;18.08;;;102.60;2227.20;;;;;;5063034;28;20040;-60
2021/10/25 03:25:07;;;;;;;32.47;17.58;;;102.60;2227.20;;;;;;5060952;28;20378;-60
2021/10/25 03:27:32;;;;;;;33.70;16.98;;;102.60;2227.20;;;;;;5062061;28;20394;-61
2021/10/25 03:29:58;;;;;;;31.27;16.85;;;102.60;2227.20;;;;;;5063020;28;20058;-60
2021/10/25 03:32:24;;;;;;;37.38;18.40;;;102.60;2227.20;;;;;;5060848;28;20029;-60
2021/10/25 03:34:50;;;;;;;31.15;16.85;;;102.50;2227.20;;;;;;5062110;28;20029;-60
2021/10/25 03:37:18;;;;;;;33.25;17.13;;;102.60;2227.20;;;;;;5044510;28;20500;-60
2021/10/25 03:39:47;;;;;;;37.55;18.52;;;102.60;2227.20;;;;;;5039547;28;20063;-60
2021/10/25 03:42:22;;;;;;;35.67;19.05;;;102.60;2227.20;;;;;;5066604;28;20044;-61
2021/10/25 03:44:54;;;;;;;42.10;19.05;;;102.60;2227.20;;;;;;5073294;28;20094;-60
2021/10/25 03:47:30;;;;;;;33.60;17.30;;;102.60;2227.20;;;;;;5068316;28;20025;-60
2021/10/25 03:55:09;;;;;;;32.35;17.05;;;102.50;2227.20;;;;;;5061081;28;20044;-60
2021/10/25 04:27:55;;;;;;;31.15;16.08;;;102.50;2227.20;;;;;;4984717;28;20093;-60
2021/10/25 04:30:21;;;;;;;28.80;14.80;;;102.50;2227.20;;;;;;4982955;28;20038;-60
2021/10/25 04:32:48;;;;;;;32.55;15.18;;;102.50;2227.20;;;;;;4983338;28;20053;-61
2021/10/25 04:35:14;;;;;;;29.50;15.55;;;102.40;2227.20;;;;;;4984608;28;20373;-60
2021/10/25 04:37:40;;;;;;;29.45;15.93;;;102.40;2227.20;;;;;;4982957;28;20483;-61
2021/10/25 04:40:08;;;;;;;29.48;15.45;;;102.40;2227.20;;;;;;4983278;28;20045;-60
2021/10/25 04:42:34;;;;;;;31.23;15.68;;;102.40;2227.20;;;;;;4981609;28;20046;-60
2021/10/25 04:45:00;;;;;;;30.83;17.00;;;102.40;2227.20;;;;;;5015202;28;20115;-60
2021/10/25 04:47:27;;;;;;;29.33;16.58;;;102.40;2227.20;;;;;;5045021;28;20096;-60
2021/10/25 04:49:52;;;;;;;32.53;18.70;;;102.50;2227.20;;;;;;5043702;28;20032;-60
2021/10/25 04:52:18;;;;;;;30.00;16.88;;;102.40;2227.20;;;;;;5045058;28;20585;-60
2021/10/25 04:54:44;;;;;;;40.65;20.90;;;102.40;2227.20;;;;;;5044535;28;20100;-60
2021/10/25 04:57:10;;;;;;;43.40;21.17;;;102.40;2227.20;;;;;;5043819;28;20056;-60
2021/10/25 04:59:36;;;;;;;41.83;22.65;;;102.40;2227.20;;;;;;5045234;28;20425;-60
2021/10/25 05:02:02;;;;;;;42.60;21.67;;;102.40;2227.20;;;;;;5042064;28;20030;-60
2021/10/25 05:04:28;;;;;;;38.22;22.17;;;77.70;2227.20;;;;;;5043968;28;20036;-60
2021/10/25 05:06:54;;;;;;;36.65;20.77;;;102.40;2227.20;;;;;;5045260;28;20016;-60
2021/10/25 05:09:20;;;;;;;35.10;18.50;;;102.40;2227.20;;;;;;5043465;28;20029;-60
2021/10/25 05:11:46;;;;;;;33.88;17.45;;;102.40;2227.20;;;;;;5048291;28;20025;-61
2021/10/25 05:14:11;;;;;;;32.88;17.00;;;102.40;2227.20;;;;;;5055397;28;20025;-60
2021/10/25 05:16:37;;;;;;;32.42;16.58;;;102.40;2227.20;;;;;;5055618;28;20180;-61
2021/10/25 05:19:03;;;;;;;29.63;16.63;;;102.40;2227.20;;;;;;5055514;28;20371;-60
2021/10/25 05:21:29;;;;;;;39.65;19.65;;;102.40;2227.20;;;;;;5055443;28;20032;-60
2021/10/25 05:23:55;;;;;;;59.00;29.08;;;102.40;2227.20;;;;;;5055277;28;20021;-60
2021/10/25 05:26:21;;;;;;;59.00;28.38;;;102.40;2227.20;;;;;;5055207;28;20033;-60
2021/10/25 05:28:46;;;;;;;67.82;31.52;;;102.40;2227.20;;;;;;5055064;28;20108;-60
2021/10/25 05:31:13;;;;;;;59.88;27.13;;;102.40;2227.20;;;;;;5055312;28;20040;-61
2021/10/25 05:33:40;;;;;;;55.28;24.90;;;102.40;2227.20;;;;;;5066456;28;20045;-60
2021/10/25 05:36:09;;;;;;;51.47;23.02;;;102.40;2227.20;;;;;;5046571;28;20033;-60
2021/10/25 05:38:36;;;;;;;40.63;20.13;;;102.40;2227.20;;;;;;5032801;28;20356;-60
2021/10/25 05:41:03;;;;;;;31.88;17.08;;;102.50;2227.20;;;;;;5032279;28;20029;-60
2021/10/25 05:43:29;;;;;;;28.70;16.35;;;102.80;2227.20;;;;;;5032980;28;20029;-61
2021/10/25 05:45:55;;;;;;;25.98;14.48;;;128.00;2252.80;;;;;;5031914;28;20405;-61
2021/10/25 05:48:21;;;;;;;25.40;15.13;;;153.60;2252.80;;;;;;5032912;28;20117;-60
2021/10/25 05:50:47;;;;;;;23.90;13.15;;;154.50;2252.80;;;;;;5050879;28;20037;-61
2021/10/25 05:53:14;;;;;;;22.73;12.95;;;180.00;2252.80;;;;;;5052410;28;20047;-60
2021/10/25 05:55:42;;;;;;;22.35;13.30;;;205.60;2252.80;;;;;;5052934;28;20031;-60
2021/10/25 05:58:16;;;;;;;33.45;21.90;;;231.00;2252.80;;;;;;5051713;28;20065;-61
2021/10/25 06:00:46;;;;;;;34.08;23.88;;;256.70;2150.40;;;;;;5058773;28;20081;-61
2021/10/25 06:03:17;;;;;;;29.75;19.38;;;282.30;1971.20;;;;;;5059955;28;20029;-61
2021/10/25 06:05:43;;;;;;;25.52;16.83;;;282.10;1945.60;;;;;;5036990;28;20041;-63
2021/10/25 06:08:10;;;;;;;27.40;16.88;;;307.20;1894.40;;;;;;5047628;28;20040;-62
2021/10/25 06:10:36;;;;;;;24.10;14.32;;;307.70;1843.20;;;;;;5043305;28;20043;-63
2021/10/25 06:13:05;;;;;;;24.50;14.32;;;333.10;1766.40;;;;;;5056545;28;20029;-61
2021/10/25 06:15:38;;;;;;;26.10;15.45;;;358.50;1638.40;;;;;;5071978;28;20024;-60
2021/10/25 06:18:08;;;;;;;22.63;13.20;;;359.30;1536.00;;;;;;5071427;28;20502;-61
2021/10/25 06:20:35;;;;;;;21.25;12.80;;;384.30;1484.80;;;;;;5060140;28;20102;-60
2021/10/25 06:23:10;;;;;;;23.08;16.10;;;384.50;1433.60;;;;;;5060561;28;20029;-61
2021/10/25 06:25:36;;;;;;;29.10;18.88;;;384.20;1459.20;;;;;;5059312;28;20095;-61
2021/10/25 06:28:03;;;;;;;19.88;13.10;;;359.20;1484.80;;;;;;5060271;28;20029;-61
2021/10/25 06:30:29;;;;;;;23.25;14.60;;;333.40;1587.20;;;;;;5060055;28;20104;-61
2021/10/25 06:32:55;;;;;;;24.30;15.55;;;332.80;1638.40;;;;;;5060889;28;20043;-61
2021/10/25 06:35:25;;;;;;;21.13;13.68;;;307.60;1689.60;;;;;;5060910;28;20470;-61
2021/10/25 06:38:10;;;;;;;25.08;13.57;;;282.40;1740.80;;;;;;5056362;28;20112;-61
2021/10/25 06:40:35;;;;;;;21.05;12.52;;;281.70;1792.00;;;;;;5059102;28;20381;-61
2021/10/25 06:43:01;;;;;;;25.27;14.23;;;256.70;1843.20;;;;;;5058796;28;20021;-60
2021/10/25 06:45:27;;;;;;;21.57;14.23;;;256.30;1894.40;;;;;;5058363;28;20063;-60
2021/10/25 06:47:54;;;;;;;22.23;13.07;;;231.30;1920.00;;;;;;5058052;28;20382;-61
2021/10/25 06:50:23;;;;;;;23.67;13.48;;;230.80;2022.40;;;;;;5059117;28;20040;-61
2021/10/25 06:52:52;;;;;;;18.08;11.98;;;230.70;2048.00;;;;;;5059625;28;20028;-61
2021/10/25 06:55:18;;;;;;;21.58;12.48;;;230.60;2073.60;;;;;;5063915;28;20070;-61
2021/10/25 06:57:44;;;;;;;23.88;13.23;;;230.40;2124.80;;;;;;5047167;28;20427;-60
2021/10/25 07:00:10;;;;;;;23.88;13.40;;;230.40;2150.40;;;;;;5065484;28;20077;-60
2021/10/25 07:02:37;;;;;;;27.67;16.60;;;230.40;2201.60;;;;;;5046920;28;20029;-62
2021/10/25 07:05:04;;;;;;;26.10;16.60;;;230.60;2201.60;;;;;;5050318;28;20041;-62
2021/10/25 07:07:30;;;;;;;27.52;15.20;;;231.30;2150.40;;;;;;5051340;28;20099;-61
2021/10/25 07:09:56;;;;;;;21.67;12.60;;;281.70;2073.60;;;;;;5057786;28;20030;-62
2021/10/25 07:12:27;;;;;;;22.75;13.98;;;307.50;1971.20;;;;;;5060059;28;20045;-61
2021/10/25 07:14:57;;;;;;;21.58;13.27;;;333.30;1843.20;;;;;;5041088;28;20115;-62
2021/10/25 08:11:34;;;;;;;16.48;13.32;;;768.00;742.40;;;;;;4995073;28;19905;-66
2021/10/25 08:14:04;;;;;;;16.00;12.20;;;768.60;742.40;;;;;;4995278;28;20026;-64
2021/10/25 08:22:02;;;;;;;15.68;11.60;;;820.00;665.60;;;;;;4995033;28;20109;-69
2021/10/25 08:24:36;;;;;;;22.75;16.70;;;820.10;665.60;;;;;;4997151;28;20527;-66
2021/10/25 08:27:03;;;;;;;14.30;11.20;;;845.00;665.60;;;;;;4994910;28;20036;-68
2021/10/25 08:29:30;;;;;;;12.35;10.73;;;845.10;665.60;;;;;;4994390;28;20042;-67
2021/10/25 08:39:48;;;;;;;11.35;9.18;;;819.30;691.20;;;;;;5064200;28;20093;-67
2021/10/25 08:42:25;;;;;;;11.02;8.95;;;819.40;691.20;;;;;;5064203;28;20028;-68
2021/10/25 08:45:07;;;;;;;11.43;8.55;;;793.90;691.20;;;;;;5063750;28;20020;-65
2021/10/25 08:47:38;;;;;;;11.98;9.38;;;743.00;742.40;;;;;;5063230;28;20373;-65
2021/10/25 08:50:07;;;;;;;11.85;10.27;;;742.40;793.60;;;;;;5061060;28;20025;-66
2021/10/25 08:52:33;;;;;;;13.57;9.52;;;742.40;793.60;;;;;;5063883;28;20013;-66
2021/10/25 08:55:03;;;;;;;11.65;9.35;;;743.20;768.00;;;;;;5065291;28;20036;-65
2021/10/25 08:57:42;;;;;;;12.40;10.20;;;768.70;716.80;;;;;;5064304;28;20025;-68
2021/10/25 09:00:37;;;;;;;12.38;10.50;;;742.70;768.00;;;;;;5061207;28;20021;-65
2021/10/25 09:03:06;;;;;;;14.48;10.70;;;768.10;768.00;;;;;;4965249;28;20032;-65
2021/10/25 09:05:42;;;;;;;11.52;10.15;;;743.00;793.60;;;;;;4963725;28;20078;-63
2021/10/25 09:08:10;;;;;;;12.55;10.85;;;768.50;742.40;;;;;;4971756;28;20039;-63
2021/10/25 09:10:49;;;;;;;12.27;10.20;;;768.00;742.40;;;;;;4969856;28;20031;-63
2021/10/25 09:13:28;;;;;;;9.50;8.38;;;768.50;716.80;;;;;;4951789;28;20481;-64
2021/10/25 09:16:05;;;;;;;12.05;8.13;;;794.10;716.80;;;;;;4963636;28;20093;-65
2021/10/25 09:18:37;;;;;;;11.10;8.20;;;819.70;691.20;;;;;;4963473;28;20065;-64
2021/10/25 09:21:16;;;;;;;9.75;8.48;;;819.80;665.60;;;;;;4964662;28;20089;-65
2021/10/25 09:23:44;;;;;;;9.07;7.22;;;845.70;640.00;;;;;;4964349;28;20018;-65
2021/10/25 09:26:13;;;;;;;12.73;8.32;;;819.90;665.60;;;;;;4945393;28;20031;-63
2021/10/25 09:28:51;;;;;;;10.65;7.80;;;820.10;665.60;;;;;;4962519;28;20351;-64
2021/10/25 09:31:26;;;;;;;9.40;7.20;;;845.30;665.60;;;;;;4962212;28;20093;-66
2021/10/25 09:34:13;;;;;;;9.02;7.30;;;870.40;640.00;;;;;;4946462;29;20493;-65
2021/10/25 09:37:00;;;;;;;9.40;7.57;;;845.30;665.60;;;;;;4943682;29;20079;-65
2021/10/25 09:40:10;;;;;;;9.00;7.68;;;871.00;614.40;;;;;;4964821;28;20045;-64
2021/10/25 09:51:02;;;;;;;9.50;6.97;;;871.00;640.00;;;;;;5026098;28;20504;-68
2021/10/25 09:53:45;;;;;;;8.88;6.40;;;896.10;614.40;;;;;;5017043;28;20025;-66
2021/10/25 09:56:13;;;;;;;;;;;896.50;563.20;;;;;;5017316;28;20038;-65
2021/10/25 09:59:07;;;;;;;8.07;6.53;;;870.80;614.40;;;;;;5047121;28;19912;-74
2021/10/25 10:01:35;;;;;;;9.07;7.03;;;845.30;665.60;;;;;;5054554;28;20028;-65
2021/10/25 10:04:01;;;;;;;7.70;6.57;;;870.60;614.40;;;;;;5054037;28;20112;-64
2021/10/25 10:06:27;;;;;;;9.63;6.63;;;870.40;640.00;;;;;;5054745;28;20025;-71
2021/10/25 10:08:53;;;;;;;7.60;6.72;;;845.50;640.00;;;;;;5054247;28;20024;-67
2021/10/25 10:11:20;;;;;;;9.02;6.70;;;870.70;640.00;;;;;;5054262;28;20033;-73
2021/10/25 10:13:47;;;;;;;9.32;6.78;;;845.10;665.60;;;;;;5054617;28;20114;-72
2021/10/25 10:16:13;;;;;;;16.95;11.50;;;845.50;665.60;;;;;;5054380;28;20029;-72
2021/10/25 10:18:44;;;;;;;12.80;11.07;;;819.40;665.60;;;;;;5054289;28;20132;-73
2021/10/25 10:21:12;;;;;;;9.43;6.47;;;794.10;716.80;;;;;;5036892;28;20029;-75
2021/10/25 10:23:44;;;;;;;9.30;6.35;;;794.20;716.80;;;;;;5054178;28;20029;-67
2021/10/25 10:26:16;;;;;;;8.52;6.20;;;819.50;691.20;;;;;;5054310;28;20025;-66
2021/10/25 10:28:52;;;;;;;8.68;6.07;;;743.30;716.80;;;;;;5054071;28;20025;-66
2021/10/25 10:31:25;;;;;;;11.32;8.27;;;768.00;742.40;;;;;;5053967;28;20029;-68
2021/10/25 10:33:59;;;;;;;6.85;5.70;;;768.10;742.40;;;;;;5054071;28;20053;-73
2021/10/25 10:36:35;;;;;;;10.20;6.40;;;743.00;768.00;;;;;;5036153;28;20060;-67
2021/10/25 10:39:09;;;;;;;7.88;6.07;;;717.40;768.00;;;;;;5053837;28;20104;-66
2021/10/25 10:41:42;;;;;;;14.00;7.10;;;717.70;768.00;;;;;;5054033;28;20078;-66
2021/10/25 10:44:12;;;;;;;8.20;6.30;;;743.00;768.00;;;;;;5053890;28;20056;-63
2021/10/25 10:46:51;;;;;;;7.68;5.88;;;743.30;742.40;;;;;;5053777;28;20021;-62
2021/10/25 10:49:30;;;;;;;9.68;6.38;;;793.60;716.80;;;;;;5053400;28;20041;-64
2021/10/25 10:52:31;;;;;;;10.10;7.22;;;768.20;742.40;;;;;;5034050;28;20033;-65
2021/10/25 10:55:12;;;;;;;9.18;6.55;;;768.00;742.40;;;;;;5033642;28;20356;-65
2021/10/25 11:00:30;;;;;;;9.02;6.43;;;742.80;768.00;;;;;;5033551;28;20025;-66
2021/10/25 11:03:04;;;;;;;9.10;6.82;;;742.70;793.60;;;;;;5038074;28;20033;-65
2021/10/25 11:05:37;;;;;;;11.27;6.40;;;793.90;742.40;;;;;;5053458;28;20025;-71
2021/10/25 11:08:03;;;;;;;10.32;6.05;;;768.20;768.00;;;;;;5042485;28;20082;-70
2021/10/25 11:10:31;;;;;;;8.65;5.95;;;743.20;768.00;;;;;;5042589;28;20119;-67
2021/10/25 11:13:20;;;;;;;9.73;6.43;;;742.90;793.60;;;;;;5045315;28;20033;-68
2021/10/25 11:16:07;;;;;;;7.85;5.63;;;793.60;742.40;;;;;;5032418;28;20045;-71
2021/10/25 11:18:36;;;;;;;7.75;5.70;;;793.90;716.80;;;;;;5033621;28;20383;-68
2021/10/25 11:21:13;;;;;;;6.03;5.38;;;742.90;742.40;;;;;;5015695;28;20532;-67
2021/10/25 11:23:44;;;;;;;6.97;5.65;;;742.70;768.00;;;;;;5021654;28;20027;-67
2021/10/25 11:26:17;;;;;;;8.02;5.50;;;742.40;793.60;;;;;;5038127;28;20112;-67
2021/10/25 11:29:20;;;;;;;9.57;7.20;;;743.00;768.00;;;;;;5047046;28;20029;-71
2021/10/25 11:31:52;;;;;;;8.25;5.90;;;743.00;768.00;;;;;;4935982;28;20043;-77
2021/10/25 11:34:25;;;;;;;8.45;6.50;;;742.90;742.40;;;;;;4972392;28;20030;-74
2021/10/25 11:37:16;;;;;;;10.55;5.90;;;768.70;716.80;;;;;;4972570;28;20109;-73
2021/10/25 11:39:51;;;;;;;7.45;5.57;;;768.70;691.20;;;;;;4969564;28;20027;-76
2021/10/25 11:42:27;;;;;;;9.00;5.93;;;768.10;716.80;;;;;;4960265;28;20039;-75
2021/10/25 11:44:55;;;;;;;7.57;5.60;;;743.00;742.40;;;;;;4960136;28;20035;-68
2021/10/25 11:47:32;;;;;;;9.23;6.20;;;742.50;768.00;;;;;;4954550;28;20031;-74
2021/10/25 11:50:01;;;;;;;9.23;5.72;;;743.30;742.40;;;;;;4959077;28;20054;-73
2021/10/25 11:52:34;;;;;;;9.25;6.13;;;768.20;742.40;;;;;;4961608;28;20099;-76
2021/10/25 11:55:02;;;;;;;9.68;6.15;;;743.20;742.40;;;;;;4958105;28;20452;-64
2021/10/25 11:57:28;;;;;;;8.98;6.00;;;793.60;716.80;;;;;;4960839;28;20559;-75
2021/10/25 11:59:58;;;;;;;7.50;6.30;;;743.00;742.40;;;;;;4962156;28;20109;-75
2021/10/25 12:02:25;;;;;;;9.98;6.85;;;743.00;742.40;;;;;;4952771;29;20079;-78
2021/10/25 12:04:51;;;;;;;8.50;6.63;;;742.60;768.00;;;;;;4953116;29;20079;-75
2021/10/25 12:07:18;;;;;;;8.82;6.72;;;717.40;768.00;;;;;;4969422;28;20030;-70
2021/10/25 12:09:43;;;;;;;7.82;6.60;;;717.70;793.60;;;;;;5040614;28;20025;-74
2021/10/25 12:12:16;;;;;;;9.68;6.95;;;717.50;768.00;;;;;;5036560;28;20026;-72
2021/10/25 12:14:45;;;;;;;10.68;7.50;;;742.40;768.00;;;;;;5029164;28;20041;-78
2021/10/25 12:17:16;;;;;;;11.65;7.00;;;768.10;742.40;;;;;;5029826;28;20040;-67
2021/10/25 12:19:44;;;;;;;8.63;7.13;;;768.80;716.80;;;;;;5026854;28;20446;-74
2021/10/25 12:22:13;;;;;;;10.90;7.18;;;743.00;716.80;;;;;;5043019;28;20029;-70
2021/10/25 12:24:42;;;;;;;8.20;7.40;;;743.20;742.40;;;;;;5046033;28;20060;-76
2021/10/25 12:27:14;;;;;;;10.38;7.50;;;768.50;716.80;;;;;;5054155;28;20025;-70
2021/10/25 12:29:41;;;;;;;11.02;7.70;;;742.70;768.00;;;;;;5045922;28;20025;-67
2021/10/25 12:32:11;;;;;;;10.20;7.53;;;742.50;768.00;;;;;;5033124;28;20037;-72
2021/10/25 12:34:55;;;;;;;9.63;7.53;;;742.80;768.00;;;;;;5034709;28;20421;-66
2021/10/25 12:37:24;;;;;;;8.48;7.43;;;768.10;742.40;;;;;;5035825;28;20034;-66
2021/10/25 12:39:50;;;;;;;10.27;8.93;;;743.20;716.80;;;;;;5053876;28;20017;-76
2021/10/25 12:42:16;;;;;;;10.50;7.63;;;768.30;716.80;;;;;;5032381;28;20049;-73
2021/10/25 12:44:47;;;;;;;9.00;7.10;;;768.80;691.20;;;;;;5042832;28;20048;-67
2021/10/25 12:47:19;;;;;;;8.50;7.30;;;768.60;716.80;;;;;;5032923;28;20382;-67
2021/10/25 12:49:50;;;;;;;10.32;8.75;;;717.30;768.00;;;;;;5038795;28;20042;-64
2021/10/25 12:52:16;;;;;;;10.48;8.82;;;692.00;742.40;;;;;;5032448;28;20033;-67
2021/10/25 12:54:43;;;;;;;10.73;7.38;;;691.90;768.00;;;;;;5039084;28;20486;-73
2021/10/25 12:57:22;;;;;;;10.18;7.13;;;717.20;768.00;;;;;;5044656;28;20033;-74
2021/10/25 12:59:58;;;;;;;8.88;7.20;;;742.40;768.00;;;;;;5019531;28;20036;-71
2021/10/25 13:02:28;;;;;;;8.13;7.30;;;717.40;742.40;;;;;;5043461;28;20025;-66
2021/10/25 13:05:08;;;;;;;8.57;7.13;;;692.10;742.40;;;;;;5042367;28;20048;-73
2021/10/25 13:07:34;;;;;;;10.75;7.45;;;717.00;768.00;;;;;;5039067;28;20078;-69
2021/10/25 13:10:00;;;;;;;11.45;7.13;;;691.80;768.00;;;;;;5041904;28;20029;-75
2021/10/25 13:12:26;;;;;;;20.15;18.13;;;666.40;768.00;;;;;;5043265;28;20033;-71
2021/10/25 13:14:52;;;;;;;9.45;7.80;;;665.90;793.60;;;;;;5044051;28;20037;-75
2021/10/25 13:17:18;;;;;;;32.83;30.50;;;665.60;844.80;;;;;;5032573;28;20041;-73
2021/10/25 13:19:44;;;;;;;20.52;18.58;;;640.90;819.20;;;;;;5043356;28;20394;-73
2021/10/25 13:22:10;;;;;;;13.65;11.13;;;640.10;844.80;;;;;;5023605;28;20120;-65
2021/10/25 13:24:36;;;;;;;9.90;8.10;;;615.00;870.40;;;;;;5043213;28;20148;-73
2021/10/25 13:27:04;;;;;;;22.52;13.32;;;614.40;921.60;;;;;;5036196;28;20078;-82
2021/10/25 13:29:29;;;;;;;11.93;8.55;;;589.20;972.80;;;;;;5038532;28;20567;-73
2021/10/25 13:31:55;;;;;;;15.63;9.30;;;563.90;998.40;;;;;;5011814;28;19932;-71
2021/10/25 13:34:21;;;;;;;15.70;11.35;;;538.40;1049.60;;;;;;5033085;28;20470;-74
2021/10/25 13:36:47;;;;;;;14.48;10.68;;;537.60;1075.20;;;;;;5032924;28;20045;-72
2021/10/25 13:39:16;;;;;;;16.27;9.38;;;512.70;1100.80;;;;;;5044563;28;20018;-76
2021/10/25 13:41:42;;;;;;;15.63;10.77;;;512.60;1126.40;;;;;;5033423;28;20467;-81
2021/10/25 13:44:08;;;;;;;10.40;6.82;;;512.30;1126.40;;;;;;5032856;28;20057;-68
2021/10/25 13:46:34;;;;;;;17.85;12.68;;;487.30;1152.00;;;;;;5032478;28;20071;-71
2021/10/25 13:49:00;;;;;;;17.63;11.45;;;486.80;1203.20;;;;;;5031839;28;20029;-74
2021/10/25 13:51:26;;;;;;;13.65;9.73;;;486.40;1228.80;;;;;;5043616;28;20110;-76
2021/10/25 13:53:52;;;;;;;14.80;9.15;;;486.60;1254.40;;;;;;5052499;28;20536;-74
2021/10/25 13:56:18;;;;;;;9.93;6.45;;;486.60;1228.80;;;;;;5052620;28;20112;-73
2021/10/25 13:58:44;;;;;;;14.20;9.30;;;486.70;1254.40;;;;;;5052669;28;20083;-71
2021/10/25 14:01:10;;;;;;;13.38;9.43;;;461.70;1228.80;;;;;;5051879;28;20511;-73
2021/10/25 14:03:38;;;;;;;12.93;9.23;;;461.40;1280.00;;;;;;5052751;28;20036;-75
2021/10/25 14:06:07;;;;;;;12.38;8.38;;;461.20;1280.00;;;;;;5052044;28;20021;-73
2021/10/25 14:08:33;;;;;;;10.45;7.45;;;461.10;1331.20;;;;;;5052630;28;20033;-76
2021/10/25 14:10:58;;;;;;;15.30;8.60;;;461.10;1305.60;;;;;;5051895;28;20127;-68